createdAt,value
2023-05-12T00:01:03.885Z,5.65
2023-05-12T00:03:41.268Z,5.47
2023-05-12T00:06:11.559Z,5.13
2023-05-12T00:08:40.873Z,4.93
2023-05-12T00:11:08.494Z,5.38
2023-05-12T00:13:36.429Z,5.60
2023-05-12T00:16:05.541Z,5.40
2023-05-12T00:18:34.811Z,5.35
2023-05-12T00:21:04.832Z,5.32
2023-05-12T00:23:34.793Z,5.20
2023-05-12T00:26:02.463Z,5.20
2023-05-12T00:28:30.302Z,4.70
2023-05-12T00:31:04.492Z,5.43
2023-05-12T00:33:35.539Z,4.93
2023-05-12T00:36:07.469Z,5.47
2023-05-12T00:38:37.357Z,5.32
2023-05-12T00:41:04.862Z,4.93
2023-05-12T00:43:32.141Z,4.68
2023-05-12T00:46:00.023Z,5.22
2023-05-12T00:48:27.369Z,4.93
2023-05-12T00:50:56.031Z,5.18
2023-05-12T00:53:41.365Z,5.43
2023-05-12T00:56:20.416Z,5.13
2023-05-12T00:58:52.526Z,4.97
2023-05-12T01:01:21.300Z,5.15
2023-05-12T01:03:55.218Z,4.70
2023-05-12T01:06:31.374Z,5.10
2023-05-12T01:08:59.656Z,4.88
2023-05-12T01:11:29.263Z,5.30
2023-05-12T01:13:56.513Z,4.85
2023-05-12T01:16:27.152Z,5.20
2023-05-12T01:18:56.858Z,5.10
2023-05-12T01:21:26.051Z,5.10
2023-05-12T01:23:57.479Z,5.30
2023-05-12T01:26:27.189Z,4.97
2023-05-12T01:28:56.210Z,5.03
2023-05-12T01:31:25.511Z,5.43
2023-05-12T01:33:52.794Z,5.38
2023-05-12T01:36:20.597Z,5.20
2023-05-12T01:38:47.886Z,5.03
2023-05-12T01:41:15.371Z,5.07
2023-05-12T01:43:42.950Z,5.00
2023-05-12T01:46:11.057Z,5.53
2023-05-12T01:48:40.371Z,4.80
2023-05-12T01:51:09.174Z,5.10
2023-05-12T01:53:37.067Z,5.05
2023-05-12T01:56:04.501Z,5.10
2023-05-12T01:58:34.247Z,5.10
2023-05-12T02:01:01.900Z,5.17
2023-05-12T02:03:29.270Z,5.07
2023-05-12T02:05:57.894Z,4.75
2023-05-12T02:08:25.974Z,5.20
2023-05-12T02:11:04.925Z,4.93
2023-05-12T02:13:32.711Z,5.23
2023-05-12T02:16:00.072Z,5.07
2023-05-12T02:18:27.738Z,5.35
2023-05-12T02:20:56.631Z,4.80
2023-05-12T02:23:31.072Z,4.97
2023-05-12T02:25:58.739Z,5.20
2023-05-12T02:28:25.991Z,5.40
2023-05-12T02:30:54.404Z,5.20
2023-05-12T02:33:23.082Z,4.87
2023-05-12T02:35:54.774Z,4.60
2023-05-12T02:38:22.321Z,5.33
2023-05-12T02:40:50.078Z,5.50
2023-05-12T02:43:20.621Z,4.83
2023-05-12T02:45:50.705Z,5.20
2023-05-12T02:48:24.867Z,5.20
2023-05-12T02:50:53.761Z,5.07
2023-05-12T02:53:21.958Z,4.70
2023-05-12T02:55:50.446Z,5.20
2023-05-12T02:58:18.583Z,5.13
2023-05-12T03:00:54.140Z,5.17
2023-05-12T03:03:27.705Z,4.90
2023-05-12T03:05:56.703Z,5.03
2023-05-12T03:08:24.141Z,5.00
2023-05-12T03:10:51.769Z,5.37
2023-05-12T03:13:20.960Z,5.37
2023-05-12T03:15:48.262Z,5.00
2023-05-12T03:18:15.637Z,5.00
2023-05-12T03:20:43.274Z,5.07
2023-05-12T03:23:10.612Z,5.20
2023-05-12T03:25:38.512Z,5.10
2023-05-12T03:28:05.989Z,5.23
2023-05-12T03:30:33.395Z,5.07
2023-05-12T03:33:00.730Z,4.80
2023-05-12T03:35:28.697Z,4.80
2023-05-12T03:37:56.251Z,5.47
2023-05-12T03:40:23.661Z,5.03
2023-05-12T03:42:50.974Z,5.33
2023-05-12T03:45:19.091Z,5.40
2023-05-12T03:47:46.861Z,5.40
2023-05-12T03:50:14.260Z,5.30
2023-05-12T03:52:41.675Z,5.17
2023-05-12T03:55:10.981Z,5.00
2023-05-12T03:57:38.386Z,5.63
2023-05-12T04:00:06.727Z,5.70
2023-05-12T04:02:48.321Z,5.30
2023-05-12T04:05:16.032Z,4.83
2023-05-12T04:07:42.899Z,4.80
2023-05-12T04:10:12.867Z,5.40
2023-05-12T04:12:44.836Z,5.23
2023-05-12T04:15:14.778Z,5.23
2023-05-12T04:17:41.919Z,5.63
2023-05-12T04:20:18.475Z,5.70
2023-05-12T04:22:48.994Z,4.90
2023-05-12T04:25:16.700Z,5.17
2023-05-12T04:27:46.316Z,5.40
2023-05-12T04:30:16.252Z,5.10
2023-05-12T04:32:49.867Z,4.80
2023-05-12T04:35:26.009Z,5.07
2023-05-12T04:38:04.653Z,5.07
2023-05-12T04:40:46.135Z,5.28
2023-05-12T04:45:55.618Z,5.13
2023-05-12T04:48:32.143Z,5.67
2023-05-12T04:51:15.130Z,5.10
2023-05-12T04:56:40.258Z,5.00
2023-05-12T05:02:04.631Z,5.10
2023-05-12T05:04:35.766Z,5.22
2023-05-12T05:07:07.238Z,4.68
2023-05-12T05:09:36.174Z,5.43
2023-05-12T05:12:03.729Z,5.00
2023-05-12T05:14:31.688Z,5.05
2023-05-12T05:17:00.007Z,4.88
2023-05-12T05:19:44.527Z,4.95
2023-05-12T05:22:16.936Z,5.15
2023-05-12T05:24:45.955Z,5.40
2023-05-12T05:27:13.822Z,5.20
2023-05-12T05:29:42.021Z,4.75
2023-05-12T05:32:09.105Z,4.47
2023-05-12T05:34:40.407Z,4.90
2023-05-12T05:37:07.934Z,5.22
2023-05-12T05:39:38.068Z,4.90
2023-05-12T05:42:05.382Z,4.40
2023-05-12T05:44:34.934Z,4.80
2023-05-12T05:47:03.856Z,4.72
2023-05-12T05:49:46.343Z,4.93
2023-05-12T05:52:15.051Z,4.70
2023-05-12T05:54:42.322Z,5.10
2023-05-12T05:57:09.446Z,4.93
2023-05-12T05:59:37.714Z,4.60
2023-05-12T06:02:07.274Z,4.70
2023-05-12T06:04:34.513Z,4.78
2023-05-12T06:07:01.828Z,4.60
2023-05-12T06:09:28.799Z,4.53
2023-05-12T06:11:55.744Z,4.57
2023-05-12T06:14:22.639Z,5.18
2023-05-12T06:16:49.738Z,4.30
2023-05-12T06:19:16.681Z,3.95
2023-05-12T06:21:43.954Z,4.15
2023-05-12T06:24:11.197Z,4.43
2023-05-12T06:26:39.609Z,4.28
2023-05-12T06:29:12.559Z,4.07
2023-05-12T06:31:43.638Z,3.92
2023-05-12T06:34:11.064Z,4.07
2023-05-12T06:36:38.816Z,4.10
2023-05-12T06:39:06.520Z,4.05
2023-05-12T06:41:37.460Z,4.32
2023-05-12T06:44:07.892Z,4.35
2023-05-12T06:46:34.780Z,3.95
2023-05-12T06:49:01.856Z,4.25
2023-05-12T06:51:28.688Z,3.88
2023-05-12T06:53:55.593Z,4.13
2023-05-12T06:56:23.718Z,3.95
2023-05-12T06:58:52.514Z,4.00
2023-05-12T07:01:19.467Z,3.90
2023-05-12T07:03:48.621Z,4.20
2023-05-12T07:06:21.063Z,3.80
2023-05-12T07:08:50.693Z,3.80
2023-05-12T07:11:24.761Z,4.82
2023-05-12T07:13:52.116Z,3.50
2023-05-12T07:16:21.219Z,3.50
2023-05-12T07:18:49.619Z,3.70
2023-05-12T07:21:19.361Z,4.47
2023-05-12T07:23:46.296Z,3.70
2023-05-12T07:26:13.321Z,3.50
2023-05-12T07:28:40.415Z,3.60
2023-05-12T07:31:08.255Z,3.70
2023-05-12T07:33:36.230Z,3.75
2023-05-12T07:36:04.806Z,6.10
2023-05-12T07:38:32.194Z,3.30
2023-05-12T07:41:01.146Z,3.50
2023-05-12T07:43:28.178Z,5.53
2023-05-12T07:45:56.241Z,3.85
2023-05-12T07:48:24.457Z,3.75
2023-05-12T07:50:53.016Z,3.78
2023-05-12T07:53:22.982Z,4.38
2023-05-12T07:55:54.929Z,3.90
2023-05-12T07:58:21.834Z,3.60
2023-05-12T08:00:53.459Z,3.70
2023-05-12T08:03:24.520Z,3.33
2023-05-12T08:05:54.470Z,3.50
2023-05-12T08:08:31.885Z,3.53
2023-05-12T08:11:02.009Z,3.72
2023-05-12T08:13:34.036Z,3.63
2023-05-12T08:16:00.978Z,3.83
2023-05-12T08:18:28.181Z,3.13
2023-05-12T08:20:56.444Z,3.58
2023-05-12T08:23:25.706Z,3.50
2023-05-12T08:25:52.610Z,3.33
2023-05-12T08:28:19.918Z,3.58
2023-05-12T08:30:48.445Z,3.70
2023-05-12T08:33:16.561Z,3.20
2023-05-12T08:35:46.498Z,3.70
2023-05-12T08:38:13.917Z,3.42
2023-05-12T08:41:12.371Z,3.67
2023-05-12T08:43:56.832Z,3.20
2023-05-12T08:46:28.900Z,3.22
2023-05-12T08:49:01.504Z,3.20
2023-05-12T08:51:32.052Z,3.50
2023-05-12T08:54:01.408Z,3.50
2023-05-12T08:59:12.702Z,3.50
2023-05-12T09:01:51.874Z,3.20
2023-05-12T09:07:09.206Z,3.20
2023-05-12T09:09:36.994Z,3.20
2023-05-12T09:12:16.758Z,3.33
2023-05-12T09:14:46.914Z,3.25
2023-05-12T09:17:18.567Z,3.40
2023-05-12T09:19:47.951Z,3.45
2023-05-12T09:22:16.627Z,3.33
2023-05-12T09:24:50.076Z,3.42
2023-05-12T09:27:32.713Z,3.20
2023-05-12T09:30:01.145Z,3.25
2023-05-12T09:32:37.167Z,3.20
2023-05-12T09:35:08.185Z,3.42
2023-05-12T09:37:37.051Z,3.40
2023-05-12T09:40:09.064Z,3.10
2023-05-12T09:42:39.040Z,3.58
2023-05-12T09:45:11.148Z,3.10
2023-05-12T09:47:40.799Z,3.28
2023-05-12T09:50:08.938Z,3.30
2023-05-12T09:52:40.562Z,3.08
2023-05-12T09:55:12.947Z,3.22
2023-05-12T09:57:50.873Z,3.30
2023-05-12T10:00:38.624Z,3.28
2023-05-12T10:03:33.070Z,3.30
2023-05-12T10:06:04.572Z,3.20
2023-05-12T10:08:51.091Z,2.95
2023-05-12T10:11:18.106Z,3.35
2023-05-12T10:13:50.723Z,3.20
2023-05-12T10:16:19.502Z,3.55
2023-05-12T10:18:47.898Z,3.40
2023-05-12T10:21:17.024Z,3.50
2023-05-12T10:23:53.042Z,3.53
2023-05-12T10:26:21.469Z,3.30
2023-05-12T10:28:54.698Z,3.00
2023-05-12T10:31:27.937Z,3.45
2023-05-12T10:34:00.548Z,3.17
2023-05-12T10:36:31.966Z,3.10
2023-05-12T10:39:12.994Z,2.85
2023-05-12T10:41:42.812Z,3.30
2023-05-12T10:44:15.663Z,3.40
2023-05-12T10:46:42.905Z,3.28
2023-05-12T10:49:18.924Z,3.33
2023-05-12T10:51:47.985Z,3.25
2023-05-12T10:54:29.119Z,3.65
2023-05-12T10:57:22.172Z,3.53
2023-05-12T10:59:54.468Z,3.20
2023-05-12T11:02:34.968Z,3.00
2023-05-12T11:05:30.580Z,3.25
2023-05-12T11:08:04.550Z,3.42
2023-05-12T11:10:33.991Z,3.25
2023-05-12T11:13:04.463Z,3.40
2023-05-12T11:15:32.619Z,5.40
2023-05-12T11:18:02.953Z,3.10
2023-05-12T11:20:31.109Z,3.22
2023-05-12T11:23:01.927Z,3.78
2023-05-12T11:25:29.520Z,3.88
2023-05-12T11:27:56.695Z,3.47
2023-05-12T11:30:26.446Z,3.33
2023-05-12T11:33:05.265Z,3.45
2023-05-12T11:35:34.408Z,3.40
2023-05-12T11:38:04.581Z,3.20
2023-05-12T11:40:31.484Z,3.60
2023-05-12T11:43:11.915Z,3.15
2023-05-12T11:45:38.958Z,3.20
2023-05-12T11:48:12.889Z,3.70
2023-05-12T11:50:50.328Z,3.25
2023-05-12T11:53:19.055Z,3.72
2023-05-12T11:55:56.101Z,3.30
2023-05-12T11:58:30.899Z,3.03
2023-05-12T12:01:08.625Z,3.45
2023-05-12T12:03:47.935Z,3.40
2023-05-12T12:06:18.812Z,3.83
2023-05-12T12:09:01.256Z,5.03
2023-05-12T12:11:33.432Z,3.75
2023-05-12T12:14:02.095Z,3.63
2023-05-12T12:16:31.871Z,8.18
2023-05-12T12:19:05.205Z,4.80
2023-05-12T12:21:36.515Z,3.92
2023-05-12T12:24:06.193Z,3.38
2023-05-12T12:26:37.163Z,7.00
2023-05-12T12:29:10.364Z,9.68
2023-05-12T12:31:40.426Z,7.85
2023-05-12T12:34:18.514Z,4.90
2023-05-12T12:36:50.847Z,6.50
2023-05-12T12:39:30.723Z,17.05
2023-05-12T12:42:06.582Z,9.65
2023-05-12T12:44:37.878Z,7.70
2023-05-12T12:47:05.210Z,5.65
2023-05-12T12:49:33.422Z,4.88
2023-05-12T12:52:03.870Z,4.20
2023-05-12T12:54:33.150Z,4.15
2023-05-12T12:57:00.074Z,4.30
2023-05-12T12:59:29.893Z,4.03
2023-05-12T13:02:00.043Z,3.75
2023-05-12T13:04:28.075Z,3.35
2023-05-12T13:06:57.624Z,3.38
2023-05-12T13:09:30.290Z,3.30
2023-05-12T13:12:11.945Z,3.50
2023-05-12T13:14:40.176Z,3.30
2023-05-12T13:17:10.184Z,3.40
2023-05-12T13:19:38.334Z,3.42
2023-05-12T13:22:08.689Z,3.38
2023-05-12T13:24:36.582Z,3.20
2023-05-12T13:27:09.204Z,3.22
2023-05-12T13:29:39.287Z,4.18
2023-05-12T13:32:09.768Z,3.42
2023-05-12T13:34:39.632Z,3.58
2023-05-12T13:37:10.606Z,3.30
2023-05-12T13:39:38.504Z,2.95
2023-05-12T13:42:08.553Z,3.15
2023-05-12T13:44:36.610Z,3.40
2023-05-12T13:47:08.287Z,3.28
2023-05-12T13:49:38.083Z,3.25
2023-05-12T13:52:11.424Z,3.55
2023-05-12T13:54:41.460Z,3.45
2023-05-12T13:57:11.329Z,3.30
2023-05-12T13:59:39.363Z,3.50
2023-05-12T14:02:14.071Z,3.03
2023-05-12T14:04:41.288Z,3.25
2023-05-12T14:07:10.340Z,3.00
2023-05-12T14:09:39.606Z,3.20
2023-05-12T14:12:09.239Z,3.20
2023-05-12T14:14:38.235Z,3.53
2023-05-12T14:17:05.889Z,5.50
2023-05-12T14:19:35.705Z,4.70
2023-05-12T14:22:19.023Z,4.40
2023-05-12T14:25:00.028Z,3.53
2023-05-12T14:27:29.353Z,3.55
2023-05-12T14:29:59.611Z,3.50
2023-05-12T14:32:30.561Z,3.75
2023-05-12T14:34:58.162Z,3.20
2023-05-12T14:37:27.809Z,3.33
2023-05-12T14:39:56.857Z,3.30
2023-05-12T14:42:24.946Z,3.08
2023-05-12T14:44:55.062Z,3.08
2023-05-12T14:47:30.071Z,3.00
2023-05-12T14:49:57.994Z,3.40
2023-05-12T14:52:27.309Z,3.28
2023-05-12T14:54:54.575Z,3.30
2023-05-12T14:57:21.703Z,3.42
2023-05-12T14:59:54.668Z,3.30
2023-05-12T15:02:21.699Z,4.15
2023-05-12T15:04:52.664Z,4.00
2023-05-12T15:07:23.196Z,3.28
2023-05-12T15:09:52.102Z,3.20
2023-05-12T15:12:19.415Z,3.33
2023-05-12T15:14:49.886Z,2.70
2023-05-12T15:17:16.861Z,3.50
2023-05-12T15:19:44.789Z,3.10
2023-05-12T15:22:12.972Z,3.00
2023-05-12T15:24:40.270Z,3.40
2023-05-12T15:27:07.846Z,3.20
2023-05-12T15:29:41.440Z,3.53
2023-05-12T15:32:08.593Z,3.42
2023-05-12T15:34:36.713Z,3.50
2023-05-12T15:37:09.266Z,3.28
2023-05-12T15:39:37.511Z,3.30
2023-05-12T15:42:07.424Z,3.60
2023-05-12T15:44:35.417Z,3.47
2023-05-12T15:47:02.484Z,3.80
2023-05-12T15:49:29.884Z,3.75
2023-05-12T15:51:58.184Z,3.42
2023-05-12T15:54:26.751Z,3.10
2023-05-12T15:56:55.956Z,3.20
2023-05-12T15:59:34.099Z,3.70
2023-05-12T16:02:02.346Z,3.00
2023-05-12T16:04:33.108Z,3.60
2023-05-12T16:07:03.916Z,3.00
2023-05-12T16:09:39.827Z,3.50
2023-05-12T16:12:09.487Z,3.28
2023-05-12T16:14:41.798Z,3.63
2023-05-12T16:17:11.501Z,3.65
2023-05-12T16:19:41.296Z,3.70
2023-05-12T16:22:13.003Z,3.83
2023-05-12T16:24:42.621Z,3.78
2023-05-12T16:27:13.225Z,3.40
2023-05-12T16:29:59.912Z,3.17
2023-05-12T16:32:33.994Z,3.28
2023-05-12T16:35:08.113Z,5.90
2023-05-12T16:37:56.305Z,3.50
2023-05-12T16:40:26.141Z,3.45
2023-05-12T16:42:59.924Z,3.55
2023-05-12T16:45:37.547Z,3.17
2023-05-12T16:48:05.083Z,3.20
2023-05-12T16:50:36.532Z,3.30
2023-05-12T16:53:04.300Z,3.15
2023-05-12T16:55:33.107Z,3.60
2023-05-12T16:58:00.120Z,3.50
2023-05-12T17:00:30.835Z,3.83
2023-05-12T17:03:10.895Z,3.40
2023-05-12T17:05:54.821Z,3.63
2023-05-12T17:08:25.470Z,3.55
2023-05-12T17:10:55.213Z,3.70
2023-05-12T17:13:22.475Z,3.35
2023-05-12T17:15:49.582Z,3.35
2023-05-12T17:18:17.670Z,3.42
2023-05-12T17:20:45.075Z,3.05
2023-05-12T17:23:15.173Z,3.63
2023-05-12T17:25:46.955Z,3.22
2023-05-12T17:28:14.436Z,3.35
2023-05-12T17:30:58.970Z,3.30
2023-05-12T17:38:53.767Z,3.90
2023-05-12T17:41:23.321Z,3.90
2023-05-12T17:43:54.566Z,4.00
2023-05-12T17:46:29.739Z,3.83
2023-05-12T17:48:57.236Z,3.80
2023-05-12T17:51:26.987Z,3.70
2023-05-12T17:53:55.337Z,5.00
2023-05-12T17:56:26.588Z,5.20
2023-05-12T17:58:55.650Z,4.10
2023-05-12T18:01:22.835Z,3.72
2023-05-12T18:03:50.130Z,3.63
2023-05-12T18:06:17.078Z,3.90
2023-05-12T18:08:46.720Z,3.78
2023-05-12T18:11:16.449Z,4.28
2023-05-12T18:13:50.429Z,3.72
2023-05-12T18:16:28.346Z,3.97
2023-05-12T18:18:56.530Z,3.80
2023-05-12T18:21:24.150Z,3.75
2023-05-12T18:23:59.345Z,4.18
2023-05-12T18:26:28.084Z,4.63
2023-05-12T18:29:10.749Z,4.32
2023-05-12T18:31:48.630Z,4.30
2023-05-12T18:34:18.962Z,4.07
2023-05-12T18:36:54.285Z,4.50
2023-05-12T18:39:21.593Z,4.57
2023-05-12T18:41:48.469Z,5.60
2023-05-12T18:44:15.846Z,5.35
2023-05-12T18:46:50.618Z,4.85
2023-05-12T18:49:21.916Z,4.40
2023-05-12T18:51:50.483Z,5.28
2023-05-12T18:54:17.766Z,4.85
2023-05-12T18:56:47.332Z,5.05
2023-05-12T18:59:19.752Z,5.10
2023-05-12T19:01:48.348Z,5.20
2023-05-12T19:04:19.546Z,8.18
2023-05-12T19:06:47.184Z,5.88
2023-05-12T19:09:14.837Z,5.40
2023-05-12T19:11:42.826Z,5.13
2023-05-12T19:14:10.752Z,5.60
2023-05-12T19:16:38.428Z,5.60
2023-05-12T19:19:11.228Z,5.28
2023-05-12T19:21:56.755Z,5.53
2023-05-12T19:24:27.403Z,6.00
2023-05-12T19:26:57.936Z,6.00
2023-05-12T19:29:26.908Z,6.00
2023-05-12T19:31:58.717Z,6.63
2023-05-12T19:37:16.935Z,6.03
2023-05-12T19:39:48.518Z,6.53
2023-05-12T19:45:08.187Z,6.57
2023-05-12T19:47:43.336Z,7.13
2023-05-12T19:50:21.688Z,7.28
2023-05-12T19:52:52.451Z,7.07
2023-05-12T19:58:07.099Z,7.00
2023-05-12T20:00:38.951Z,7.18
2023-05-12T20:03:16.099Z,7.40
2023-05-12T20:05:44.952Z,7.72
2023-05-12T20:08:12.693Z,8.20
2023-05-12T20:10:40.864Z,7.50
2023-05-12T20:13:09.284Z,7.75
2023-05-12T20:15:37.595Z,7.38
2023-05-12T20:18:06.837Z,7.60
2023-05-12T20:20:36.502Z,7.30
2023-05-12T20:23:05.925Z,7.40
2023-05-12T20:25:33.258Z,7.15
2023-05-12T20:28:02.084Z,7.40
2023-05-12T20:30:34.255Z,8.00
2023-05-12T20:33:04.001Z,9.30
2023-05-12T20:35:36.136Z,8.02
2023-05-12T20:38:06.967Z,7.47
2023-05-12T20:40:38.357Z,7.40
2023-05-12T20:43:05.184Z,7.80
2023-05-12T20:45:34.112Z,8.60
2023-05-12T20:48:01.941Z,8.60
2023-05-12T20:50:29.769Z,8.90
2023-05-12T20:55:41.338Z,9.57
2023-05-12T20:58:11.601Z,10.57
2023-05-12T21:00:39.836Z,9.98
2023-05-12T21:03:07.364Z,10.57
2023-05-12T21:05:37.778Z,11.27
2023-05-12T21:08:08.801Z,9.98
2023-05-12T21:10:41.159Z,11.65
2023-05-12T21:13:10.177Z,10.85
2023-05-12T21:15:40.052Z,11.25
2023-05-12T21:18:14.088Z,10.43
2023-05-12T21:20:44.231Z,10.52
2023-05-12T21:23:13.721Z,10.90
2023-05-12T21:25:57.318Z,9.98
2023-05-12T21:28:34.705Z,10.77
2023-05-12T21:31:02.916Z,9.98
2023-05-12T21:33:33.396Z,9.65
2023-05-12T21:36:05.479Z,9.75
2023-05-12T21:39:10.746Z,10.10
2023-05-12T21:41:40.123Z,9.80
2023-05-12T21:44:10.386Z,9.60
2023-05-12T21:46:39.990Z,10.48
2023-05-12T21:49:07.440Z,10.10
2023-05-12T21:51:35.084Z,9.93
2023-05-12T21:55:11.895Z,10.38
2023-05-12T21:57:38.838Z,9.35
2023-05-12T22:00:09.656Z,9.52
2023-05-12T22:02:42.797Z,9.23
2023-05-12T22:05:21.650Z,9.45
2023-05-12T22:07:56.139Z,8.95
2023-05-12T22:10:45.606Z,9.77
2023-05-12T22:13:17.093Z,9.25
2023-05-12T22:15:46.441Z,9.50
2023-05-12T22:18:16.040Z,10.02
2023-05-12T22:20:43.238Z,9.90
2023-05-12T22:23:10.527Z,10.15
2023-05-12T22:25:38.215Z,10.48
2023-05-12T22:28:07.761Z,11.23
2023-05-12T22:30:34.625Z,10.90
2023-05-12T22:33:02.841Z,11.10
2023-05-12T22:35:32.806Z,11.15
2023-05-12T22:38:00.514Z,11.27
2023-05-12T22:40:27.856Z,11.38
2023-05-12T22:42:54.968Z,11.77
2023-05-12T22:45:22.095Z,12.13
2023-05-12T22:47:49.092Z,12.07
2023-05-12T22:50:17.599Z,11.63
2023-05-12T22:52:44.623Z,12.10
2023-05-12T22:55:12.751Z,12.13
2023-05-12T22:57:42.205Z,11.98
2023-05-12T23:00:10.785Z,11.60
2023-05-12T23:02:38.190Z,11.70
2023-05-12T23:05:09.138Z,11.38
2023-05-12T23:07:36.025Z,11.80
2023-05-12T23:10:03.139Z,11.13
2023-05-12T23:12:30.808Z,11.10
2023-05-12T23:14:57.673Z,11.57
2023-05-12T23:17:27.436Z,11.63
2023-05-12T23:19:57.523Z,11.73
2023-05-12T23:22:25.828Z,11.77
2023-05-12T23:24:54.977Z,11.60
2023-05-12T23:27:22.264Z,12.60
2023-05-12T23:29:49.205Z,12.52
2023-05-12T23:32:16.347Z,12.73
2023-05-12T23:34:43.610Z,13.18
2023-05-12T23:37:11.296Z,12.75
2023-05-12T23:39:38.283Z,13.20
2023-05-12T23:42:06.051Z,13.40
2023-05-12T23:44:33.441Z,14.00
2023-05-12T23:47:01.883Z,13.45
2023-05-12T23:49:29.044Z,13.00
2023-05-12T23:51:57.718Z,13.07
2023-05-12T23:54:26.749Z,11.88
2023-05-12T23:56:57.150Z,12.50
2023-05-12T23:59:24.608Z,12.23
